Αναφορές METAR

 

LGKZ - Kozani (civ/Army, Greece
Distance from station: ΝΔ 41km
Ενημερώθηκε: 19/05/2021 04:50

 Ανεμος από varies
Ανεμος: varies 4 km/h
Θερμοκρασία: 8°C
Σημείο Δρόσου: 0°C
Υγρασία: 57%
Βαρόμετρο: 1016 hPa
2021/05/19 01:50 LGKZ 190150Z AUTO VRB02KT //// // ////// 08/00 Q1016 RE//
LGTS - Thessaloniki/Mik, Greece
Distance from station: Α 64km
Ενημερώθηκε: 19/05/2021 04:50
Few Clouds
Few Clouds
 Ανεμος από ΑΝΑ
Ανεμος: ΑΝΑ 9 km/h
Θερμοκρασία: 13°C
Σημείο Δρόσου: 9°C
Υγρασία: 77%
Βαρόμετρο: 1013 hPa
Clouds: Few Clouds
Visibility: 10 km
Cloud details: Few Clouds 914 m
2021/05/19 01:50 LGTS 190150Z 11005KT 9999 FEW030 13/09 Q1013 NOSIG
 
LGIO - Ioannina, Greece
Distance from station: ΝΔ 149km
Ενημερώθηκε: 19/05/2021 01:20
NOT Current

 Ανεμος από varies
Ανεμος: varies 2 km/h
Θερμοκρασία: 10°C
Σημείο Δρόσου: 8°C
Υγρασία: 88%
Βαρόμετρο: 1017 hPa
2021/05/18 22:20 LGIO 182220Z AUTO VRB01KT //// // ////// 10/08 Q1017 RE//
LGBL - Nea Anchialos, Greece
Distance from station: ΝΝΑ 154km
Ενημερώθηκε: 19/05/2021 04:50
Few Clouds
Few Clouds
 Ανεμος από calm
Ανεμος: Απνοια
Θερμοκρασία: 14°C
Σημείο Δρόσου: 9°C
Υγρασία: 72%
Βαρόμετρο: 1012 hPa
Clouds: Few Clouds
Visibility: 10 km
Cloud details: Few Clouds 1067 m
2021/05/19 01:50 LGBL 190150Z 00000KT 9999 FEW035 14/09 Q1012
 
LGSK - Skiathos Island, Greece
Distance from station: ΝΑ 185km
Ενημερώθηκε: 18/05/2021 18:50
NOT Current
Αίθριος
Αίθριος
 Ανεμος από Β
Ανεμος: Β 7 km/h
Θερμοκρασία: 24°C
Σημείο Δρόσου: 16°C
Υγρασία: 61%
Βαρόμετρο: 1010 hPa
Περίληψη: Αίθριος
Visibility: greater than 10 km
2021/05/18 15:50 LGSK 181550Z 35004KT CAVOK 24/16 Q1010
LGKV - Kavala/Chrisoupo, Greece
Distance from station: ΑΒΑ 208km
Ενημερώθηκε: 18/05/2021 20:50
NOT Current
Few Clouds
Few Clouds
 Ανεμος από ΒΑ
Ανεμος: ΒΑ 13 km/h
Θερμοκρασία: 20°C
Σημείο Δρόσου: 17°C
Υγρασία: 83%
Βαρόμετρο: 1010 hPa
Clouds: Few Clouds
Visibility: 10 km
Cloud details: Few Clouds 762 m
2021/05/18 17:50 LGKV 181750Z 05007KT 9999 FEW025 20/17 Q1010
 
LGPZ - Preveza/Aktion, Greece
Distance from station: ΝΔ 217km
Ενημερώθηκε: 19/05/2021 04:50
Αίθριος
Αίθριος
 Ανεμος από varies
Ανεμος: varies 6 km/h
Θερμοκρασία: 16°C
Σημείο Δρόσου: 15°C
Υγρασία: 94%
Βαρόμετρο: 1014 hPa
Περίληψη: Αίθριος
Visibility: greater than 10 km
2021/05/19 01:50 LGPZ 190150Z VRB03KT CAVOK 16/15 Q1014
LGKR - Ioannis Kapodist, Greece
Distance from station: ΔΝΔ 219km
Ενημερώθηκε: 19/05/2021 04:50
Αίθριος
Αίθριος
 Ανεμος από Δ
Ανεμος: Δ 6 km/h
Θερμοκρασία: 13°C
Σημείο Δρόσου: 11°C
Υγρασία: 88%
Βαρόμετρο: 1014 hPa
Περίληψη: Αίθριος
Visibility: greater than 10 km
2021/05/19 01:50 LGKR 190150Z 27003KT CAVOK 13/11 Q1014 NOSIG
 
LGSY - Skiros, Greece
Distance from station: ΝΑ 261km
Ενημερώθηκε: 18/05/2021 12:50
NOT Current
Αίθριος
Αίθριος
 Ανεμος από ΔΝΔ
Ανεμος: ΔΝΔ 15 km/h
Θερμοκρασία: 27°C
Heat Index: 28°C
Σημείο Δρόσου: 19°C
Υγρασία: 62%
Βαρόμετρο: 1010 hPa
Περίληψη: Αίθριος
Visibility: greater than 10 km
2021/05/18 09:50 LGSY 180950Z 24008KT CAVOK 27/19 Q1010 RMK FEW080 FEW180 BLU
LGLM - Limnos Island Ar, Greece
Distance from station: ΑΝΑ 266km
Ενημερώθηκε: 19/05/2021 04:50
Αίθριος
Αίθριος
 Ανεμος από calm
Ανεμος: Απνοια
Θερμοκρασία: 13°C
Σημείο Δρόσου: 13°C
Υγρασία: 100%
Βαρόμετρο: 1012 hPa
Περίληψη: Αίθριος
Visibility: greater than 10 km
2021/05/19 01:50 LGLM 190150Z 00000KT CAVOK 13/13 Q1012
 
LGRX - Araxos (civ/Afb), Greece
Distance from station: ΝΝΔ 271km
Ενημερώθηκε: 19/05/2021 04:50
Αίθριος
Αίθριος
 Ανεμος από calm
Ανεμος: Απνοια
Θερμοκρασία: 12°C
Σημείο Δρόσου: 11°C
Υγρασία: 94%
Βαρόμετρο: 1014 hPa
Περίληψη: Αίθριος
Visibility: greater than 10 km
2021/05/19 01:50 LGRX 190150Z 00000KT CAVOK 12/11 Q1014
LGEL - Elefsis (hel-Afb, Greece
Distance from station: ΝΝΑ 297km
Ενημερώθηκε: 19/05/2021 04:50
Αίθριος
Αίθριος
 Ανεμος από calm
Ανεμος: Απνοια
Θερμοκρασία: 17°C
Σημείο Δρόσου: 10°C
Υγρασία: 64%
Βαρόμετρο: 1012 hPa
Περίληψη: Αίθριος
Visibility: greater than 10 km
2021/05/19 01:50 LGEL 190150Z 00000KT CAVOK 17/10 Q1012
 
LGAD - Andravida (civ/A, Greece
Distance from station: ΝΝΔ 301km
Ενημερώθηκε: 19/05/2021 04:50
Αίθριος
Αίθριος
 Ανεμος από calm
Ανεμος: Απνοια
Θερμοκρασία: 12°C
Σημείο Δρόσου: 11°C
Υγρασία: 94%
Βαρόμετρο: 1014 hPa
Περίληψη: Αίθριος
Visibility: greater than 10 km
2021/05/19 01:50 LGAD 190150Z 00000KT CAVOK 12/11 Q1014
LGKF - Kefallinia, Greece
Distance from station: ΝΝΔ 305km
Ενημερώθηκε: 18/05/2021 20:50
NOT Current
Few Clouds
Few Clouds
 Ανεμος από ΒΔ
Ανεμος: ΒΔ 19 km/h
Θερμοκρασία: 20°C
Σημείο Δρόσου: 17°C
Υγρασία: 83%
Βαρόμετρο: 1014 hPa
Clouds: Few Clouds
Visibility: 10 km
Cloud details: Few Clouds 549 m
2021/05/18 17:50 LGKF 181750Z 32010KT 9999 FEW018 20/17 Q1014